sensor_id;sensor_type;location;lat;lon;timestamp;temperature;humidity
9466;DHT22;4771;48.726;9.006;2024-02-15T00:01:01;11.20;99.90
9466;DHT22;4771;48.726;9.006;2024-02-15T00:03:29;11.30;99.90
9466;DHT22;4771;48.726;9.006;2024-02-15T00:05:58;11.20;99.90
9466;DHT22;4771;48.726;9.006;2024-02-15T00:08:25;11.20;99.90
9466;DHT22;4771;48.726;9.006;2024-02-15T00:10:52;11.20;99.90
9466;DHT22;4771;48.726;9.006;2024-02-15T00:13:19;11.30;99.90
9466;DHT22;4771;48.726;9.006;2024-02-15T00:15:47;11.20;99.90
9466;DHT22;4771;48.726;9.006;2024-02-15T00:18:15;11.20;99.90
9466;DHT22;4771;48.726;9.006;2024-02-15T00:20:41;11.30;99.90
9466;DHT22;4771;48.726;9.006;2024-02-15T00:23:10;11.20;99.90
9466;DHT22;4771;48.726;9.006;2024-02-15T00:25:37;11.20;99.90
9466;DHT22;4771;48.726;9.006;2024-02-15T00:28:05;11.30;99.90
9466;DHT22;4771;48.726;9.006;2024-02-15T00:30:33;11.20;99.90
9466;DHT22;4771;48.726;9.006;2024-02-15T00:32:59;11.30;99.90
9466;DHT22;4771;48.726;9.006;2024-02-15T00:35:28;11.20;99.90
9466;DHT22;4771;48.726;9.006;2024-02-15T00:37:55;11.20;99.90
9466;DHT22;4771;48.726;9.006;2024-02-15T00:40:24;11.20;99.90
9466;DHT22;4771;48.726;9.006;2024-02-15T00:42:51;11.20;99.90
9466;DHT22;4771;48.726;9.006;2024-02-15T00:45:18;11.20;99.90
9466;DHT22;4771;48.726;9.006;2024-02-15T00:47:45;11.20;99.90
9466;DHT22;4771;48.726;9.006;2024-02-15T00:50:12;11.20;99.90
9466;DHT22;4771;48.726;9.006;2024-02-15T00:52:39;11.20;99.90
9466;DHT22;4771;48.726;9.006;2024-02-15T00:55:06;11.20;99.90
9466;DHT22;4771;48.726;9.006;2024-02-15T00:57:34;11.10;99.90
9466;DHT22;4771;48.726;9.006;2024-02-15T01:00:01;11.10;99.90
9466;DHT22;4771;48.726;9.006;2024-02-15T01:02:29;11.10;99.90
9466;DHT22;4771;48.726;9.006;2024-02-15T01:04:56;11.10;99.90
9466;DHT22;4771;48.726;9.006;2024-02-15T01:07:24;11.10;99.90
9466;DHT22;4771;48.726;9.006;2024-02-15T01:09:53;11.00;99.90
9466;DHT22;4771;48.726;9.006;2024-02-15T01:12:20;11.10;99.90
9466;DHT22;4771;48.726;9.006;2024-02-15T01:14:48;11.10;99.90
9466;DHT22;4771;48.726;9.006;2024-02-15T01:17:15;11.10;99.90
9466;DHT22;4771;48.726;9.006;2024-02-15T01:19:42;11.00;99.90
9466;DHT22;4771;48.726;9.006;2024-02-15T01:22:10;11.00;99.90
9466;DHT22;4771;48.726;9.006;2024-02-15T01:24:38;11.00;99.90
9466;DHT22;4771;48.726;9.006;2024-02-15T01:27:05;11.00;99.90
9466;DHT22;4771;48.726;9.006;2024-02-15T01:29:32;10.90;99.90
9466;DHT22;4771;48.726;9.006;2024-02-15T01:32:01;10.90;99.90
9466;DHT22;4771;48.726;9.006;2024-02-15T01:34:28;10.90;99.90
9466;DHT22;4771;48.726;9.006;2024-02-15T01:36:55;10.80;99.90
9466;DHT22;4771;48.726;9.006;2024-02-15T01:39:22;10.80;99.90
9466;DHT22;4771;48.726;9.006;2024-02-15T01:41:48;10.70;99.90
9466;DHT22;4771;48.726;9.006;2024-02-15T01:44:16;10.80;99.90
9466;DHT22;4771;48.726;9.006;2024-02-15T01:46:46;10.70;99.90
9466;DHT22;4771;48.726;9.006;2024-02-15T01:49:15;10.60;99.90
9466;DHT22;4771;48.726;9.006;2024-02-15T01:51:42;10.60;99.90
9466;DHT22;4771;48.726;9.006;2024-02-15T01:54:11;10.50;99.90
9466;DHT22;4771;48.726;9.006;2024-02-15T01:56:38;10.50;99.90
9466;DHT22;4771;48.726;9.006;2024-02-15T01:59:06;10.50;99.90
9466;DHT22;4771;48.726;9.006;2024-02-15T02:01:33;10.40;99.90
9466;DHT22;4771;48.726;9.006;2024-02-15T02:04:00;10.40;99.90
9466;DHT22;4771;48.726;9.006;2024-02-15T02:06:30;10.30;99.90
9466;DHT22;4771;48.726;9.006;2024-02-15T02:08:58;10.30;99.90
9466;DHT22;4771;48.726;9.006;2024-02-15T02:11:25;10.20;99.90
9466;DHT22;4771;48.726;9.006;2024-02-15T02:13:54;10.20;99.90
9466;DHT22;4771;48.726;9.006;2024-02-15T02:16:25;10.10;99.90
9466;DHT22;4771;48.726;9.006;2024-02-15T02:18:54;10.10;99.90
9466;DHT22;4771;48.726;9.006;2024-02-15T02:21:21;9.70;99.90
9466;DHT22;4771;48.726;9.006;2024-02-15T02:23:52;10.10;99.90
9466;DHT22;4771;48.726;9.006;2024-02-15T02:26:21;10.00;99.90
9466;DHT22;4771;48.726;9.006;2024-02-15T02:28:48;10.00;99.90
9466;DHT22;4771;48.726;9.006;2024-02-15T02:31:15;10.00;99.90
9466;DHT22;4771;48.726;9.006;2024-02-15T02:33:47;10.00;99.90
9466;DHT22;4771;48.726;9.006;2024-02-15T02:36:14;10.00;99.90
9466;DHT22;4771;48.726;9.006;2024-02-15T02:38:41;10.00;99.90
9466;DHT22;4771;48.726;9.006;2024-02-15T02:41:11;10.00;99.90
9466;DHT22;4771;48.726;9.006;2024-02-15T02:43:39;10.00;99.90
9466;DHT22;4771;48.726;9.006;2024-02-15T02:46:06;9.90;99.90
9466;DHT22;4771;48.726;9.006;2024-02-15T02:48:33;9.90;99.90
9466;DHT22;4771;48.726;9.006;2024-02-15T02:50:59;9.90;99.90
9466;DHT22;4771;48.726;9.006;2024-02-15T02:53:26;9.90;99.90
9466;DHT22;4771;48.726;9.006;2024-02-15T02:55:55;9.80;99.90
9466;DHT22;4771;48.726;9.006;2024-02-15T02:58:22;9.70;99.90
9466;DHT22;4771;48.726;9.006;2024-02-15T03:00:51;9.70;99.90
9466;DHT22;4771;48.726;9.006;2024-02-15T03:03:18;9.70;99.90
9466;DHT22;4771;48.726;9.006;2024-02-15T03:05:45;9.50;99.90
9466;DHT22;4771;48.726;9.006;2024-02-15T03:08:12;9.50;99.90
9466;DHT22;4771;48.726;9.006;2024-02-15T03:10:39;9.40;99.90
9466;DHT22;4771;48.726;9.006;2024-02-15T03:13:07;9.40;99.90
9466;DHT22;4771;48.726;9.006;2024-02-15T03:15:34;9.30;99.90
9466;DHT22;4771;48.726;9.006;2024-02-15T03:18:03;9.30;99.90
9466;DHT22;4771;48.726;9.006;2024-02-15T03:20:32;9.20;99.90
9466;DHT22;4771;48.726;9.006;2024-02-15T03:23:00;9.10;99.90
9466;DHT22;4771;48.726;9.006;2024-02-15T03:25:28;9.10;99.90
9466;DHT22;4771;48.726;9.006;2024-02-15T03:27:57;9.50;99.90
9466;DHT22;4771;48.726;9.006;2024-02-15T03:30:25;9.10;99.90
9466;DHT22;4771;48.726;9.006;2024-02-15T03:32:52;9.00;99.90
9466;DHT22;4771;48.726;9.006;2024-02-15T03:35:22;9.00;99.90
9466;DHT22;4771;48.726;9.006;2024-02-15T03:37:49;9.00;99.90
9466;DHT22;4771;48.726;9.006;2024-02-15T03:40:17;8.90;99.90
9466;DHT22;4771;48.726;9.006;2024-02-15T03:42:44;8.90;99.90
9466;DHT22;4771;48.726;9.006;2024-02-15T03:45:12;8.90;99.90
9466;DHT22;4771;48.726;9.006;2024-02-15T03:47:39;8.90;99.90
9466;DHT22;4771;48.726;9.006;2024-02-15T03:50:08;8.80;99.90
9466;DHT22;4771;48.726;9.006;2024-02-15T03:52:36;8.80;99.90
9466;DHT22;4771;48.726;9.006;2024-02-15T03:55:04;9.10;99.90
9466;DHT22;4771;48.726;9.006;2024-02-15T03:57:33;8.80;99.90
9466;DHT22;4771;48.726;9.006;2024-02-15T04:00:00;8.80;99.90
9466;DHT22;4771;48.726;9.006;2024-02-15T04:02:27;8.80;99.90
9466;DHT22;4771;48.726;9.006;2024-02-15T04:04:55;8.80;99.90
9466;DHT22;4771;48.726;9.006;2024-02-15T04:07:23;8.80;99.90
9466;DHT22;4771;48.726;9.006;2024-02-15T04:09:53;8.80;99.90
9466;DHT22;4771;48.726;9.006;2024-02-15T04:12:20;8.80;99.90
9466;DHT22;4771;48.726;9.006;2024-02-15T04:14:48;8.80;99.90
9466;DHT22;4771;48.726;9.006;2024-02-15T04:17:16;8.90;99.90
9466;DHT22;4771;48.726;9.006;2024-02-15T04:19:47;8.90;99.90
9466;DHT22;4771;48.726;9.006;2024-02-15T04:22:16;8.90;99.90
9466;DHT22;4771;48.726;9.006;2024-02-15T04:24:42;8.90;99.90
9466;DHT22;4771;48.726;9.006;2024-02-15T04:27:12;8.90;99.90
9466;DHT22;4771;48.726;9.006;2024-02-15T04:29:39;8.90;99.90
9466;DHT22;4771;48.726;9.006;2024-02-15T04:32:07;8.90;99.90
9466;DHT22;4771;48.726;9.006;2024-02-15T04:34:35;8.90;99.90
9466;DHT22;4771;48.726;9.006;2024-02-15T04:37:03;8.90;99.90
9466;DHT22;4771;48.726;9.006;2024-02-15T04:39:32;8.90;99.90
9466;DHT22;4771;48.726;9.006;2024-02-15T04:41:59;8.90;99.90
9466;DHT22;4771;48.726;9.006;2024-02-15T04:44:27;8.90;99.90
9466;DHT22;4771;48.726;9.006;2024-02-15T04:46:54;8.90;99.90
9466;DHT22;4771;48.726;9.006;2024-02-15T04:49:21;9.00;99.90
9466;DHT22;4771;48.726;9.006;2024-02-15T04:51:49;9.00;99.90
9466;DHT22;4771;48.726;9.006;2024-02-15T04:54:16;9.00;99.90
9466;DHT22;4771;48.726;9.006;2024-02-15T04:56:43;9.00;99.90
9466;DHT22;4771;48.726;9.006;2024-02-15T04:59:11;9.00;99.90
9466;DHT22;4771;48.726;9.006;2024-02-15T05:01:42;9.00;99.90
9466;DHT22;4771;48.726;9.006;2024-02-15T05:04:09;9.00;99.90
9466;DHT22;4771;48.726;9.006;2024-02-15T05:06:37;9.00;99.90
9466;DHT22;4771;48.726;9.006;2024-02-15T05:09:04;9.00;99.90
9466;DHT22;4771;48.726;9.006;2024-02-15T05:11:33;9.00;99.90
9466;DHT22;4771;48.726;9.006;2024-02-15T05:14:01;9.10;99.90
9466;DHT22;4771;48.726;9.006;2024-02-15T05:16:31;9.10;99.90
9466;DHT22;4771;48.726;9.006;2024-02-15T05:18:59;9.10;99.90
9466;DHT22;4771;48.726;9.006;2024-02-15T05:21:26;9.30;99.90
9466;DHT22;4771;48.726;9.006;2024-02-15T05:23:53;9.10;99.90
9466;DHT22;4771;48.726;9.006;2024-02-15T05:26:21;9.10;99.90
9466;DHT22;4771;48.726;9.006;2024-02-15T05:28:49;9.10;99.90
9466;DHT22;4771;48.726;9.006;2024-02-15T05:31:17;9.00;99.90
9466;DHT22;4771;48.726;9.006;2024-02-15T05:33:46;9.10;99.90
9466;DHT22;4771;48.726;9.006;2024-02-15T05:36:15;9.00;99.90
9466;DHT22;4771;48.726;9.006;2024-02-15T05:38:46;9.10;99.90
9466;DHT22;4771;48.726;9.006;2024-02-15T05:41:13;9.10;99.90
9466;DHT22;4771;48.726;9.006;2024-02-15T05:43:40;9.10;99.90
9466;DHT22;4771;48.726;9.006;2024-02-15T05:46:08;9.00;99.90
9466;DHT22;4771;48.726;9.006;2024-02-15T05:48:35;9.00;99.90
9466;DHT22;4771;48.726;9.006;2024-02-15T05:51:02;9.00;99.90
9466;DHT22;4771;48.726;9.006;2024-02-15T05:53:31;9.00;99.90
9466;DHT22;4771;48.726;9.006;2024-02-15T05:56:01;9.00;99.90
9466;DHT22;4771;48.726;9.006;2024-02-15T05:58:29;9.00;99.90
9466;DHT22;4771;48.726;9.006;2024-02-15T06:00:57;9.10;99.90
9466;DHT22;4771;48.726;9.006;2024-02-15T06:03:27;9.00;99.90
9466;DHT22;4771;48.726;9.006;2024-02-15T06:05:53;9.00;99.90
9466;DHT22;4771;48.726;9.006;2024-02-15T06:08:24;9.00;99.90
9466;DHT22;4771;48.726;9.006;2024-02-15T06:10:52;9.00;99.90
9466;DHT22;4771;48.726;9.006;2024-02-15T06:13:19;9.00;99.90
9466;DHT22;4771;48.726;9.006;2024-02-15T06:15:46;9.00;99.90
9466;DHT22;4771;48.726;9.006;2024-02-15T06:18:18;9.00;99.90
9466;DHT22;4771;48.726;9.006;2024-02-15T06:20:47;9.00;99.90
9466;DHT22;4771;48.726;9.006;2024-02-15T06:23:15;8.90;99.90
9466;DHT22;4771;48.726;9.006;2024-02-15T06:25:42;8.90;99.90
9466;DHT22;4771;48.726;9.006;2024-02-15T06:28:10;8.90;99.90
9466;DHT22;4771;48.726;9.006;2024-02-15T06:31:00;8.90;99.90
9466;DHT22;4771;48.726;9.006;2024-02-15T06:33:45;8.90;99.90
9466;DHT22;4771;48.726;9.006;2024-02-15T06:36:29;8.90;99.90
9466;DHT22;4771;48.726;9.006;2024-02-15T06:39:24;8.90;99.90
9466;DHT22;4771;48.726;9.006;2024-02-15T06:42:11;8.90;99.90
9466;DHT22;4771;48.726;9.006;2024-02-15T06:44:43;8.90;99.90
9466;DHT22;4771;48.726;9.006;2024-02-15T06:47:10;8.80;99.90
9466;DHT22;4771;48.726;9.006;2024-02-15T06:49:37;8.80;99.90
9466;DHT22;4771;48.726;9.006;2024-02-15T06:52:06;8.90;99.90
9466;DHT22;4771;48.726;9.006;2024-02-15T06:54:33;8.80;99.90
9466;DHT22;4771;48.726;9.006;2024-02-15T06:57:01;8.80;99.90
9466;DHT22;4771;48.726;9.006;2024-02-15T06:59:29;8.90;99.90
9466;DHT22;4771;48.726;9.006;2024-02-15T07:01:58;8.80;99.90
9466;DHT22;4771;48.726;9.006;2024-02-15T07:04:25;8.80;99.90
9466;DHT22;4771;48.726;9.006;2024-02-15T07:06:52;8.80;99.90
9466;DHT22;4771;48.726;9.006;2024-02-15T07:09:20;8.80;99.90
9466;DHT22;4771;48.726;9.006;2024-02-15T07:11:48;8.80;99.90
9466;DHT22;4771;48.726;9.006;2024-02-15T07:14:15;8.80;99.90
9466;DHT22;4771;48.726;9.006;2024-02-15T07:16:44;8.80;99.90
9466;DHT22;4771;48.726;9.006;2024-02-15T07:19:12;8.80;99.90
9466;DHT22;4771;48.726;9.006;2024-02-15T07:21:39;8.90;99.90
9466;DHT22;4771;48.726;9.006;2024-02-15T07:24:06;8.90;99.90
9466;DHT22;4771;48.726;9.006;2024-02-15T07:26:33;8.90;99.90
9466;DHT22;4771;48.726;9.006;2024-02-15T07:29:02;9.00;99.90
9466;DHT22;4771;48.726;9.006;2024-02-15T07:31:31;9.00;99.90
9466;DHT22;4771;48.726;9.006;2024-02-15T07:33:58;9.10;99.90
9466;DHT22;4771;48.726;9.006;2024-02-15T07:36:27;9.10;99.90
9466;DHT22;4771;48.726;9.006;2024-02-15T07:38:55;9.20;99.90
9466;DHT22;4771;48.726;9.006;2024-02-15T07:41:26;9.30;99.90
9466;DHT22;4771;48.726;9.006;2024-02-15T07:43:54;9.30;99.90
9466;DHT22;4771;48.726;9.006;2024-02-15T07:46:21;9.40;99.90
9466;DHT22;4771;48.726;9.006;2024-02-15T07:48:49;9.40;99.90
9466;DHT22;4771;48.726;9.006;2024-02-15T07:51:17;9.50;99.90
9466;DHT22;4771;48.726;9.006;2024-02-15T07:53:46;9.50;99.90
9466;DHT22;4771;48.726;9.006;2024-02-15T07:56:15;9.60;99.90
9466;DHT22;4771;48.726;9.006;2024-02-15T07:58:42;9.60;99.90
9466;DHT22;4771;48.726;9.006;2024-02-15T08:01:12;9.70;99.90
9466;DHT22;4771;48.726;9.006;2024-02-15T08:03:38;9.70;99.90
9466;DHT22;4771;48.726;9.006;2024-02-15T08:06:10;9.80;99.90
9466;DHT22;4771;48.726;9.006;2024-02-15T08:08:38;9.90;99.90
9466;DHT22;4771;48.726;9.006;2024-02-15T08:11:08;9.90;99.90
9466;DHT22;4771;48.726;9.006;2024-02-15T08:13:40;10.00;99.90
9466;DHT22;4771;48.726;9.006;2024-02-15T08:16:07;10.00;99.90
9466;DHT22;4771;48.726;9.006;2024-02-15T08:18:34;10.10;99.90
9466;DHT22;4771;48.726;9.006;2024-02-15T08:21:02;10.10;99.90
9466;DHT22;4771;48.726;9.006;2024-02-15T08:23:29;10.10;99.90
9466;DHT22;4771;48.726;9.006;2024-02-15T08:25:57;10.20;99.90
9466;DHT22;4771;48.726;9.006;2024-02-15T08:28:26;10.20;99.90
9466;DHT22;4771;48.726;9.006;2024-02-15T08:30:54;10.30;99.90
9466;DHT22;4771;48.726;9.006;2024-02-15T08:33:21;10.30;99.90
9466;DHT22;4771;48.726;9.006;2024-02-15T08:35:49;10.40;99.90
9466;DHT22;4771;48.726;9.006;2024-02-15T08:38:16;10.40;99.90
9466;DHT22;4771;48.726;9.006;2024-02-15T08:40:44;10.50;99.90
9466;DHT22;4771;48.726;9.006;2024-02-15T08:43:13;10.50;99.90
9466;DHT22;4771;48.726;9.006;2024-02-15T08:45:42;10.50;99.90
9466;DHT22;4771;48.726;9.006;2024-02-15T08:48:09;10.50;99.90
9466;DHT22;4771;48.726;9.006;2024-02-15T08:50:36;10.60;99.90
9466;DHT22;4771;48.726;9.006;2024-02-15T08:53:03;10.60;99.90
9466;DHT22;4771;48.726;9.006;2024-02-15T08:55:32;10.70;99.90
9466;DHT22;4771;48.726;9.006;2024-02-15T08:58:01;10.70;99.90
9466;DHT22;4771;48.726;9.006;2024-02-15T09:00:29;10.80;99.90
9466;DHT22;4771;48.726;9.006;2024-02-15T09:02:58;10.80;99.90
9466;DHT22;4771;48.726;9.006;2024-02-15T09:05:25;10.90;99.90
9466;DHT22;4771;48.726;9.006;2024-02-15T09:07:51;11.00;99.90
9466;DHT22;4771;48.726;9.006;2024-02-15T09:10:18;11.10;99.90
9466;DHT22;4771;48.726;9.006;2024-02-15T09:12:48;11.20;99.90
9466;DHT22;4771;48.726;9.006;2024-02-15T09:15:15;11.30;99.90
9466;DHT22;4771;48.726;9.006;2024-02-15T09:17:42;11.50;99.90
9466;DHT22;4771;48.726;9.006;2024-02-15T09:20:13;11.50;99.90
9466;DHT22;4771;48.726;9.006;2024-02-15T09:22:47;11.60;99.90
9466;DHT22;4771;48.726;9.006;2024-02-15T09:25:14;11.70;99.90
9466;DHT22;4771;48.726;9.006;2024-02-15T09:27:41;11.80;99.90
9466;DHT22;4771;48.726;9.006;2024-02-15T09:30:10;11.90;99.90
9466;DHT22;4771;48.726;9.006;2024-02-15T09:32:37;12.00;99.90
9466;DHT22;4771;48.726;9.006;2024-02-15T09:35:06;12.00;99.90
9466;DHT22;4771;48.726;9.006;2024-02-15T09:37:35;12.10;99.90
9466;DHT22;4771;48.726;9.006;2024-02-15T09:40:03;12.20;99.90
9466;DHT22;4771;48.726;9.006;2024-02-15T09:42:32;12.20;99.90
9466;DHT22;4771;48.726;9.006;2024-02-15T09:45:00;12.30;99.90
9466;DHT22;4771;48.726;9.006;2024-02-15T09:47:32;12.40;99.90
9466;DHT22;4771;48.726;9.006;2024-02-15T09:50:00;12.60;99.90
9466;DHT22;4771;48.726;9.006;2024-02-15T09:52:29;12.60;99.90
9466;DHT22;4771;48.726;9.006;2024-02-15T09:54:59;12.70;99.90
9466;DHT22;4771;48.726;9.006;2024-02-15T09:57:27;12.80;99.90
9466;DHT22;4771;48.726;9.006;2024-02-15T09:59:54;12.90;99.90
9466;DHT22;4771;48.726;9.006;2024-02-15T10:02:22;13.00;99.90
9466;DHT22;4771;48.726;9.006;2024-02-15T10:04:49;13.00;99.90
9466;DHT22;4771;48.726;9.006;2024-02-15T10:07:16;13.10;99.90
9466;DHT22;4771;48.726;9.006;2024-02-15T10:09:44;13.30;99.90
9466;DHT22;4771;48.726;9.006;2024-02-15T10:12:12;13.30;99.90
9466;DHT22;4771;48.726;9.006;2024-02-15T10:14:39;13.50;99.90
9466;DHT22;4771;48.726;9.006;2024-02-15T10:17:15;13.70;99.90
9466;DHT22;4771;48.726;9.006;2024-02-15T10:19:43;13.70;99.90
9466;DHT22;4771;48.726;9.006;2024-02-15T10:22:11;13.80;99.90
9466;DHT22;4771;48.726;9.006;2024-02-15T10:24:40;13.90;99.90
9466;DHT22;4771;48.726;9.006;2024-02-15T10:27:07;14.00;99.90
9466;DHT22;4771;48.726;9.006;2024-02-15T10:29:37;14.20;99.90
9466;DHT22;4771;48.726;9.006;2024-02-15T10:32:06;14.20;99.90
9466;DHT22;4771;48.726;9.006;2024-02-15T10:34:43;14.30;99.90
9466;DHT22;4771;48.726;9.006;2024-02-15T10:37:12;14.30;99.90
9466;DHT22;4771;48.726;9.006;2024-02-15T10:39:39;14.40;99.90
9466;DHT22;4771;48.726;9.006;2024-02-15T10:42:07;14.50;99.90
9466;DHT22;4771;48.726;9.006;2024-02-15T10:44:38;14.50;99.90
9466;DHT22;4771;48.726;9.006;2024-02-15T10:47:06;14.70;99.90
9466;DHT22;4771;48.726;9.006;2024-02-15T10:49:34;14.80;99.90
9466;DHT22;4771;48.726;9.006;2024-02-15T10:52:02;14.90;99.90
9466;DHT22;4771;48.726;9.006;2024-02-15T10:54:46;15.00;99.90
9466;DHT22;4771;48.726;9.006;2024-02-15T10:57:15;15.00;99.90
9466;DHT22;4771;48.726;9.006;2024-02-15T10:59:54;15.10;99.90
9466;DHT22;4771;48.726;9.006;2024-02-15T11:02:34;15.10;99.90
9466;DHT22;4771;48.726;9.006;2024-02-15T11:05:06;15.20;99.90
9466;DHT22;4771;48.726;9.006;2024-02-15T11:07:36;15.30;99.90
9466;DHT22;4771;48.726;9.006;2024-02-15T11:10:04;15.30;99.90
9466;DHT22;4771;48.726;9.006;2024-02-15T11:12:36;15.40;99.90
9466;DHT22;4771;48.726;9.006;2024-02-15T11:15:06;15.40;99.90
9466;DHT22;4771;48.726;9.006;2024-02-15T11:17:46;15.50;99.90
9466;DHT22;4771;48.726;9.006;2024-02-15T11:20:47;15.50;99.90
9466;DHT22;4771;48.726;9.006;2024-02-15T11:23:25;15.50;99.90
9466;DHT22;4771;48.726;9.006;2024-02-15T11:25:53;15.60;99.90
9466;DHT22;4771;48.726;9.006;2024-02-15T11:28:40;15.60;99.90
9466;DHT22;4771;48.726;9.006;2024-02-15T11:31:09;15.70;99.90
9466;DHT22;4771;48.726;9.006;2024-02-15T11:33:38;15.70;99.90
9466;DHT22;4771;48.726;9.006;2024-02-15T11:36:06;15.70;99.90
9466;DHT22;4771;48.726;9.006;2024-02-15T11:38:34;15.70;99.90
9466;DHT22;4771;48.726;9.006;2024-02-15T11:41:04;15.80;99.90
9466;DHT22;4771;48.726;9.006;2024-02-15T11:43:51;15.90;99.90
9466;DHT22;4771;48.726;9.006;2024-02-15T11:46:24;16.00;99.90
9466;DHT22;4771;48.726;9.006;2024-02-15T11:48:55;16.00;99.90
9466;DHT22;4771;48.726;9.006;2024-02-15T11:51:32;16.10;99.90
9466;DHT22;4771;48.726;9.006;2024-02-15T11:54:06;16.10;99.90
9466;DHT22;4771;48.726;9.006;2024-02-15T11:56:48;16.10;99.90
9466;DHT22;4771;48.726;9.006;2024-02-15T11:59:17;16.20;99.90
9466;DHT22;4771;48.726;9.006;2024-02-15T12:01:56;16.20;99.90
9466;DHT22;4771;48.726;9.006;2024-02-15T12:04:40;16.20;99.90
9466;DHT22;4771;48.726;9.006;2024-02-15T12:07:24;16.20;99.90
9466;DHT22;4771;48.726;9.006;2024-02-15T12:10:15;16.20;99.90
9466;DHT22;4771;48.726;9.006;2024-02-15T12:13:00;16.20;99.90
9466;DHT22;4771;48.726;9.006;2024-02-15T12:15:56;16.20;99.90
9466;DHT22;4771;48.726;9.006;2024-02-15T12:18:42;16.30;99.90
9466;DHT22;4771;48.726;9.006;2024-02-15T12:21:13;16.20;99.90
9466;DHT22;4771;48.726;9.006;2024-02-15T12:23:41;16.30;99.90
9466;DHT22;4771;48.726;9.006;2024-02-15T12:26:08;16.20;99.90
9466;DHT22;4771;48.726;9.006;2024-02-15T12:28:35;16.30;99.80
9466;DHT22;4771;48.726;9.006;2024-02-15T12:31:02;16.20;99.30
9466;DHT22;4771;48.726;9.006;2024-02-15T12:33:33;16.20;99.10
9466;DHT22;4771;48.726;9.006;2024-02-15T12:36:08;16.20;99.00
9466;DHT22;4771;48.726;9.006;2024-02-15T12:38:35;16.20;99.30
9466;DHT22;4771;48.726;9.006;2024-02-15T12:41:04;16.20;99.00
9466;DHT22;4771;48.726;9.006;2024-02-15T12:43:43;16.30;97.80
9466;DHT22;4771;48.726;9.006;2024-02-15T12:46:10;16.30;97.70
9466;DHT22;4771;48.726;9.006;2024-02-15T12:48:38;16.30;97.40
9466;DHT22;4771;48.726;9.006;2024-02-15T12:51:14;16.30;97.40
9466;DHT22;4771;48.726;9.006;2024-02-15T12:53:41;16.20;96.10
9466;DHT22;4771;48.726;9.006;2024-02-15T12:56:08;16.20;95.90
9466;DHT22;4771;48.726;9.006;2024-02-15T12:58:35;16.20;96.30
9466;DHT22;4771;48.726;9.006;2024-02-15T13:01:04;16.20;94.60
9466;DHT22;4771;48.726;9.006;2024-02-15T13:03:31;16.10;94.30
9466;DHT22;4771;48.726;9.006;2024-02-15T13:05:58;16.10;94.70
9466;DHT22;4771;48.726;9.006;2024-02-15T13:08:27;16.10;94.30
9466;DHT22;4771;48.726;9.006;2024-02-15T13:10:53;16.10;94.10
9466;DHT22;4771;48.726;9.006;2024-02-15T13:13:21;16.00;93.70
9466;DHT22;4771;48.726;9.006;2024-02-15T13:15:48;16.00;93.60
9466;DHT22;4771;48.726;9.006;2024-02-15T13:18:17;16.00;94.10
9466;DHT22;4771;48.726;9.006;2024-02-15T13:20:44;16.00;93.90
9466;DHT22;4771;48.726;9.006;2024-02-15T13:23:11;16.00;94.20
9466;DHT22;4771;48.726;9.006;2024-02-15T13:25:46;15.90;94.30
9466;DHT22;4771;48.726;9.006;2024-02-15T13:28:14;16.00;94.70
9466;DHT22;4771;48.726;9.006;2024-02-15T13:30:41;15.90;94.30
9466;DHT22;4771;48.726;9.006;2024-02-15T13:33:10;15.90;93.30
9466;DHT22;4771;48.726;9.006;2024-02-15T13:35:37;15.90;94.30
9466;DHT22;4771;48.726;9.006;2024-02-15T13:38:04;15.90;94.40
9466;DHT22;4771;48.726;9.006;2024-02-15T13:40:31;15.90;94.60
9466;DHT22;4771;48.726;9.006;2024-02-15T13:43:00;15.90;95.00
9466;DHT22;4771;48.726;9.006;2024-02-15T13:45:31;15.90;95.60
9466;DHT22;4771;48.726;9.006;2024-02-15T13:48:00;15.90;96.10
9466;DHT22;4771;48.726;9.006;2024-02-15T13:50:29;15.90;96.50
9466;DHT22;4771;48.726;9.006;2024-02-15T13:52:56;15.90;96.90
9466;DHT22;4771;48.726;9.006;2024-02-15T13:55:24;15.90;96.80
9466;DHT22;4771;48.726;9.006;2024-02-15T13:57:52;15.90;96.80
9466;DHT22;4771;48.726;9.006;2024-02-15T14:00:21;15.90;97.00
9466;DHT22;4771;48.726;9.006;2024-02-15T14:02:48;15.90;97.10
9466;DHT22;4771;48.726;9.006;2024-02-15T14:05:15;15.90;97.20
9466;DHT22;4771;48.726;9.006;2024-02-15T14:07:46;15.80;97.10
9466;DHT22;4771;48.726;9.006;2024-02-15T14:10:14;15.80;97.40
9466;DHT22;4771;48.726;9.006;2024-02-15T14:12:40;15.80;97.60
9466;DHT22;4771;48.726;9.006;2024-02-15T14:15:08;15.80;97.60
9466;DHT22;4771;48.726;9.006;2024-02-15T14:17:37;15.80;97.70
9466;DHT22;4771;48.726;9.006;2024-02-15T14:20:04;15.80;97.80
9466;DHT22;4771;48.726;9.006;2024-02-15T14:22:34;15.80;98.10
9466;DHT22;4771;48.726;9.006;2024-02-15T14:25:01;15.80;98.20
9466;DHT22;4771;48.726;9.006;2024-02-15T14:27:29;15.80;98.30
9466;DHT22;4771;48.726;9.006;2024-02-15T14:29:57;15.80;98.00
9466;DHT22;4771;48.726;9.006;2024-02-15T14:32:45;15.70;98.20
9466;DHT22;4771;48.726;9.006;2024-02-15T14:35:30;15.80;98.70
9466;DHT22;4771;48.726;9.006;2024-02-15T14:38:00;15.70;98.80
9466;DHT22;4771;48.726;9.006;2024-02-15T14:40:31;15.80;98.80
9466;DHT22;4771;48.726;9.006;2024-02-15T14:42:58;15.80;98.80
9466;DHT22;4771;48.726;9.006;2024-02-15T14:45:26;15.80;98.80
9466;DHT22;4771;48.726;9.006;2024-02-15T14:47:54;15.80;98.80
9466;DHT22;4771;48.726;9.006;2024-02-15T14:50:21;15.80;99.30
9466;DHT22;4771;48.726;9.006;2024-02-15T14:52:49;15.80;99.30
9466;DHT22;4771;48.726;9.006;2024-02-15T14:55:17;15.80;98.80
9466;DHT22;4771;48.726;9.006;2024-02-15T14:57:44;15.80;98.70
9466;DHT22;4771;48.726;9.006;2024-02-15T15:00:12;15.80;98.60
9466;DHT22;4771;48.726;9.006;2024-02-15T15:02:42;15.80;97.80
9466;DHT22;4771;48.726;9.006;2024-02-15T15:05:10;15.80;97.70
9466;DHT22;4771;48.726;9.006;2024-02-15T15:07:55;15.80;97.70
9466;DHT22;4771;48.726;9.006;2024-02-15T15:10:39;15.80;97.80
9466;DHT22;4771;48.726;9.006;2024-02-15T15:13:23;15.80;98.00
9466;DHT22;4771;48.726;9.006;2024-02-15T15:15:50;15.70;98.00
9466;DHT22;4771;48.726;9.006;2024-02-15T15:18:16;15.70;97.90
9466;DHT22;4771;48.726;9.006;2024-02-15T15:20:45;15.70;97.50
9466;DHT22;4771;48.726;9.006;2024-02-15T15:23:12;15.60;97.70
9466;DHT22;4771;48.726;9.006;2024-02-15T15:25:41;15.60;97.90
9466;DHT22;4771;48.726;9.006;2024-02-15T15:28:08;15.60;98.00
9466;DHT22;4771;48.726;9.006;2024-02-15T15:30:35;15.60;98.00
9466;DHT22;4771;48.726;9.006;2024-02-15T15:33:03;15.60;98.00
9466;DHT22;4771;48.726;9.006;2024-02-15T15:35:30;15.50;98.20
9466;DHT22;4771;48.726;9.006;2024-02-15T15:37:58;15.50;98.40
9466;DHT22;4771;48.726;9.006;2024-02-15T15:40:26;15.50;98.50
9466;DHT22;4771;48.726;9.006;2024-02-15T15:42:52;15.50;98.20
9466;DHT22;4771;48.726;9.006;2024-02-15T15:45:20;15.40;98.60
9466;DHT22;4771;48.726;9.006;2024-02-15T15:47:48;15.40;98.60
9466;DHT22;4771;48.726;9.006;2024-02-15T15:50:15;15.40;98.60
9466;DHT22;4771;48.726;9.006;2024-02-15T15:52:42;15.30;98.60
9466;DHT22;4771;48.726;9.006;2024-02-15T15:55:11;15.40;99.00
9466;DHT22;4771;48.726;9.006;2024-02-15T15:57:39;15.30;99.20
9466;DHT22;4771;48.726;9.006;2024-02-15T16:00:07;15.30;99.20
9466;DHT22;4771;48.726;9.006;2024-02-15T16:02:39;15.20;99.20
9466;DHT22;4771;48.726;9.006;2024-02-15T16:05:07;15.20;99.20
9466;DHT22;4771;48.726;9.006;2024-02-15T16:07:35;15.20;99.20
9466;DHT22;4771;48.726;9.006;2024-02-15T16:10:02;15.10;99.40
9466;DHT22;4771;48.726;9.006;2024-02-15T16:12:30;15.10;99.60
9466;DHT22;4771;48.726;9.006;2024-02-15T16:15:00;15.00;99.60
9466;DHT22;4771;48.726;9.006;2024-02-15T16:17:27;15.00;99.80
9466;DHT22;4771;48.726;9.006;2024-02-15T16:19:56;15.00;99.90